createdAt,value
2023-04-03T00:00:34.250Z,85.06
2023-04-03T00:03:01.297Z,86.27
2023-04-03T00:05:28.020Z,86.70
2023-04-03T00:07:54.656Z,86.19
2023-04-03T00:10:21.352Z,86.52
2023-04-03T00:12:47.969Z,87.24
2023-04-03T00:15:15.217Z,85.23
2023-04-03T00:17:42.124Z,82.81
2023-04-03T00:20:09.470Z,82.79
2023-04-03T00:22:36.223Z,82.73
2023-04-03T00:25:03.207Z,82.23
2023-04-03T00:27:29.909Z,80.68
2023-04-03T00:29:56.534Z,82.91
2023-04-03T00:32:23.208Z,82.85
2023-04-03T00:34:49.826Z,82.44
2023-04-03T00:37:16.480Z,80.66
2023-04-03T00:39:43.108Z,81.80
2023-04-03T00:42:09.800Z,80.87
2023-04-03T00:44:36.375Z,82.44
2023-04-03T00:47:06.643Z,79.99
2023-04-03T00:49:33.465Z,82.27
2023-04-03T00:52:00.896Z,81.05
2023-04-03T00:54:27.780Z,79.12
2023-04-03T00:56:57.147Z,80.59
2023-04-03T00:59:32.468Z,81.01
2023-04-03T01:01:59.655Z,80.95
2023-04-03T01:04:41.265Z,82.00
2023-04-03T01:07:16.922Z,80.80
2023-04-03T01:09:44.192Z,81.12
2023-04-03T01:12:20.845Z,80.72
2023-04-03T01:14:50.491Z,79.82
2023-04-03T01:17:34.658Z,81.06
2023-04-03T01:20:25.415Z,81.27
2023-04-03T01:23:12.642Z,79.59
2023-04-03T01:25:49.743Z,81.40
2023-04-03T01:28:39.301Z,80.99
2023-04-03T01:31:25.729Z,79.31
2023-04-03T01:33:52.902Z,80.00
2023-04-03T01:36:25.911Z,80.33
2023-04-03T01:38:54.315Z,78.35
2023-04-03T01:41:21.160Z,79.54
2023-04-03T01:43:49.117Z,79.74
2023-04-03T01:46:17.378Z,80.06
2023-04-03T01:48:44.159Z,77.91
2023-04-03T01:51:10.918Z,78.34
2023-04-03T01:53:37.632Z,78.07
2023-04-03T01:56:04.781Z,77.78
2023-04-03T01:58:31.528Z,79.08
2023-04-03T02:00:58.239Z,77.94
2023-04-03T02:03:24.916Z,77.49
2023-04-03T02:05:51.664Z,77.80
2023-04-03T02:08:18.480Z,78.13
2023-04-03T02:10:47.774Z,78.58
2023-04-03T02:13:14.369Z,77.50
2023-04-03T02:15:41.650Z,78.41
2023-04-03T02:18:09.232Z,78.72
2023-04-03T02:20:36.092Z,77.93
2023-04-03T02:23:03.734Z,76.35
2023-04-03T02:25:32.534Z,76.65
2023-04-03T02:27:59.476Z,76.31
2023-04-03T02:30:26.700Z,77.60
2023-04-03T02:32:53.593Z,75.99
2023-04-03T02:35:20.459Z,75.31
2023-04-03T02:37:47.159Z,75.50
2023-04-03T02:40:13.815Z,76.53
2023-04-03T02:42:40.659Z,77.99
2023-04-03T02:45:07.847Z,76.70
2023-04-03T02:47:34.470Z,78.05
2023-04-03T02:50:01.106Z,77.05
2023-04-03T02:52:27.771Z,76.15
2023-04-03T02:54:54.462Z,76.26
2023-04-03T02:57:21.281Z,75.09
2023-04-03T02:59:48.093Z,75.41
2023-04-03T03:02:14.734Z,77.24
2023-04-03T03:04:41.374Z,75.75
2023-04-03T03:07:08.044Z,76.89
2023-04-03T03:09:34.663Z,78.61
2023-04-03T03:12:01.407Z,77.04
2023-04-03T03:14:28.081Z,75.58
2023-04-03T03:16:54.830Z,77.02
2023-04-03T03:19:21.423Z,77.91
2023-04-03T03:21:48.128Z,78.76
2023-04-03T03:24:14.750Z,78.44
2023-04-03T03:26:41.486Z,78.89
2023-04-03T03:29:08.208Z,77.28
2023-04-03T03:31:34.879Z,77.12
2023-04-03T03:34:01.519Z,77.22
2023-04-03T03:36:28.137Z,77.53
2023-04-03T03:38:54.779Z,77.50
2023-04-03T03:41:21.530Z,77.89
2023-04-03T03:43:48.186Z,78.36
2023-04-03T03:46:14.874Z,77.55
2023-04-03T03:48:41.530Z,78.25
2023-04-03T03:51:08.225Z,78.04
2023-04-03T03:53:34.860Z,77.70
2023-04-03T03:56:01.565Z,77.63
2023-04-03T03:58:28.239Z,77.92
2023-04-03T04:00:54.850Z,77.77
2023-04-03T04:03:21.665Z,76.61
2023-04-03T04:05:48.416Z,77.11
2023-04-03T04:08:15.018Z,78.72
2023-04-03T04:10:41.781Z,77.24
2023-04-03T04:13:08.431Z,76.74
2023-04-03T04:15:35.608Z,78.76
2023-04-03T04:18:02.639Z,78.78
2023-04-03T04:20:29.263Z,79.91
2023-04-03T04:22:55.871Z,79.13
2023-04-03T04:25:22.528Z,80.00
2023-04-03T04:27:49.199Z,79.32
2023-04-03T04:30:16.205Z,80.19
2023-04-03T04:32:42.904Z,79.93
2023-04-03T04:35:09.913Z,80.60
2023-04-03T04:37:36.585Z,80.70
2023-04-03T04:40:03.245Z,81.38
2023-04-03T04:42:29.953Z,81.31
2023-04-03T04:44:56.547Z,80.30
2023-04-03T04:47:23.290Z,81.32
2023-04-03T04:49:49.908Z,81.12
2023-04-03T04:52:16.904Z,80.27
2023-04-03T04:54:43.659Z,80.35
2023-04-03T04:57:10.509Z,82.61
2023-04-03T04:59:37.170Z,81.29
2023-04-03T05:02:04.133Z,79.87
2023-04-03T05:04:31.011Z,80.67
2023-04-03T05:06:57.679Z,82.00
2023-04-03T05:09:24.285Z,80.92
2023-04-03T05:11:51.012Z,80.81
2023-04-03T05:14:17.839Z,79.54
2023-04-03T05:16:44.462Z,80.84
2023-04-03T05:19:11.078Z,81.17
2023-04-03T05:21:37.895Z,82.22
2023-04-03T05:24:05.111Z,80.91
2023-04-03T05:26:32.803Z,82.21
2023-04-03T05:28:59.422Z,82.08
2023-04-03T05:31:26.100Z,80.71
2023-04-03T05:33:53.079Z,82.09
2023-04-03T05:36:20.356Z,80.99
2023-04-03T05:38:47.427Z,80.48
2023-04-03T05:41:15.096Z,81.64
2023-04-03T05:43:42.115Z,80.79
2023-04-03T05:46:13.686Z,80.81
2023-04-03T05:48:40.358Z,79.57
2023-04-03T05:51:08.747Z,80.13
2023-04-03T05:53:37.335Z,79.89
2023-04-03T05:56:04.592Z,79.82
2023-04-03T05:58:31.757Z,78.52
2023-04-03T06:00:58.440Z,80.12
2023-04-03T06:03:25.783Z,78.58
2023-04-03T06:05:52.858Z,80.09
2023-04-03T06:08:19.442Z,79.05
2023-04-03T06:10:46.077Z,77.99
2023-04-03T06:13:12.729Z,77.08
2023-04-03T06:15:39.428Z,76.98
2023-04-03T06:18:06.202Z,79.79
2023-04-03T06:20:32.857Z,77.95
2023-04-03T06:22:59.851Z,78.84
2023-04-03T06:25:26.568Z,78.35
2023-04-03T06:27:53.227Z,80.73
2023-04-03T06:30:19.894Z,76.61
2023-04-03T06:32:46.555Z,78.76
2023-04-03T06:35:13.620Z,79.34
2023-04-03T06:37:40.239Z,78.64
2023-04-03T06:40:07.618Z,79.29
2023-04-03T06:42:34.230Z,76.85
2023-04-03T06:45:00.832Z,75.92
2023-04-03T06:47:27.645Z,74.85
2023-04-03T06:49:54.268Z,74.16
2023-04-03T06:52:20.922Z,73.82
2023-04-03T06:54:47.686Z,73.80
2023-04-03T06:57:14.359Z,72.84
2023-04-03T06:59:41.054Z,73.01
2023-04-03T07:02:07.818Z,73.51
2023-04-03T07:04:34.568Z,72.69
2023-04-03T07:07:01.298Z,73.56
2023-04-03T07:09:27.893Z,71.21
2023-04-03T07:11:54.502Z,68.10
2023-04-03T07:14:21.218Z,72.09
2023-04-03T07:16:48.189Z,69.40
2023-04-03T07:19:14.832Z,70.63
2023-04-03T07:21:41.657Z,70.87
2023-04-03T07:24:11.328Z,70.10
2023-04-03T07:26:41.570Z,68.82
2023-04-03T07:29:08.282Z,68.49
2023-04-03T07:31:34.970Z,68.52
2023-04-03T07:34:01.637Z,70.46
2023-04-03T07:36:28.247Z,70.63
2023-04-03T07:38:54.931Z,71.57
2023-04-03T07:41:21.539Z,69.87
2023-04-03T07:43:48.128Z,68.66
2023-04-03T07:46:14.862Z,67.28
2023-04-03T07:48:41.498Z,67.74
2023-04-03T07:51:08.156Z,65.87
2023-04-03T07:53:35.113Z,66.54
2023-04-03T07:56:01.770Z,67.09
2023-04-03T07:58:28.408Z,68.02
2023-04-03T08:00:55.036Z,65.10
2023-04-03T08:03:22.019Z,64.90
2023-04-03T08:05:50.876Z,65.28
2023-04-03T08:08:21.626Z,65.27
2023-04-03T08:10:55.338Z,65.75
2023-04-03T08:13:22.998Z,64.40
2023-04-03T08:15:50.157Z,63.98
2023-04-03T08:18:19.663Z,65.19
2023-04-03T08:20:46.275Z,63.17
2023-04-03T08:23:12.844Z,64.87
2023-04-03T08:25:41.195Z,64.41
2023-04-03T08:28:08.955Z,64.25
2023-04-03T08:30:35.865Z,63.17
2023-04-03T08:33:04.222Z,63.23
2023-04-03T08:35:30.982Z,64.37
2023-04-03T08:37:57.781Z,64.77
2023-04-03T08:40:25.306Z,64.07
2023-04-03T08:42:57.851Z,64.92
2023-04-03T08:45:47.224Z,65.34
2023-04-03T08:48:18.231Z,64.71
2023-04-03T08:50:49.021Z,65.09
2023-04-03T08:53:22.881Z,65.51
2023-04-03T08:55:54.278Z,64.00
2023-04-03T08:58:29.495Z,62.70
2023-04-03T09:01:05.712Z,60.54
2023-04-03T09:03:37.778Z,60.42
2023-04-03T09:06:26.879Z,61.76
2023-04-03T09:08:56.207Z,61.89
2023-04-03T09:11:48.431Z,62.97
2023-04-03T09:14:24.510Z,60.13
2023-04-03T09:16:57.611Z,61.29
2023-04-03T09:19:33.387Z,62.96
2023-04-03T09:22:22.545Z,64.54
2023-04-03T09:25:20.222Z,58.04
2023-04-03T09:27:47.046Z,57.38
2023-04-03T09:30:16.767Z,57.01
2023-04-03T09:32:48.753Z,58.45
2023-04-03T09:35:44.148Z,59.56
2023-04-03T09:38:13.675Z,60.66
2023-04-03T09:40:44.780Z,58.64
2023-04-03T09:43:23.592Z,59.58
2023-04-03T09:45:51.449Z,59.35
2023-04-03T09:48:24.491Z,58.20
2023-04-03T09:50:51.284Z,57.78
2023-04-03T09:53:29.361Z,60.06
2023-04-03T09:55:56.317Z,57.77
2023-04-03T09:58:46.702Z,57.73
2023-04-03T10:01:29.211Z,56.43
2023-04-03T10:04:15.411Z,56.08
2023-04-03T10:06:47.469Z,55.15
2023-04-03T10:09:19.621Z,56.31
2023-04-03T10:12:08.584Z,55.63
2023-04-03T10:14:37.375Z,57.19
2023-04-03T10:17:17.094Z,56.59
2023-04-03T10:20:19.173Z,58.76
2023-04-03T10:22:57.597Z,58.34
2023-04-03T10:25:42.603Z,58.03
2023-04-03T10:28:33.891Z,52.81
2023-04-03T10:31:12.593Z,52.69
2023-04-03T10:33:57.294Z,48.25
2023-04-03T10:37:02.650Z,48.94
2023-04-03T10:39:55.363Z,53.98
2023-04-03T10:43:09.555Z,55.49
2023-04-03T10:45:50.984Z,53.04
2023-04-03T10:48:40.426Z,55.10
2023-04-03T10:51:14.040Z,54.88
2023-04-03T10:53:55.831Z,55.07
2023-04-03T10:56:32.121Z,51.97
2023-04-03T10:59:24.961Z,52.65
2023-04-03T11:02:01.751Z,52.39
2023-04-03T11:04:32.534Z,52.27
2023-04-03T11:07:27.229Z,54.09
2023-04-03T11:10:01.899Z,52.12
2023-04-03T11:12:39.658Z,53.81
2023-04-03T11:15:07.268Z,55.25
2023-04-03T11:17:42.487Z,52.12
2023-04-03T11:20:35.678Z,50.89
2023-04-03T11:23:23.386Z,53.00
2023-04-03T11:25:54.421Z,51.41
2023-04-03T11:28:21.114Z,50.67
2023-04-03T11:31:12.891Z,50.81
2023-04-03T11:34:07.142Z,48.63
2023-04-03T11:36:44.586Z,51.67
2023-04-03T11:39:20.874Z,49.71
2023-04-03T11:41:48.678Z,49.97
2023-04-03T11:44:30.566Z,46.37
2023-04-03T11:46:59.279Z,47.99
2023-04-03T11:49:54.198Z,47.67
2023-04-03T11:52:43.810Z,45.02
2023-04-03T11:55:21.524Z,49.71
2023-04-03T11:58:31.532Z,47.97
2023-04-03T12:01:02.997Z,50.66
2023-04-03T12:03:29.642Z,51.10
2023-04-03T12:06:05.528Z,52.49
2023-04-03T12:08:41.144Z,49.18
2023-04-03T12:11:13.933Z,48.68
2023-04-03T12:13:49.744Z,50.30
2023-04-03T12:16:26.143Z,50.03
2023-04-03T12:18:52.780Z,49.19
2023-04-03T12:21:25.477Z,51.21
2023-04-03T12:24:10.334Z,51.38
2023-04-03T12:26:52.265Z,50.22
2023-04-03T12:29:21.924Z,50.36
2023-04-03T12:32:14.896Z,50.33
2023-04-03T12:34:53.420Z,51.57
2023-04-03T12:37:32.144Z,51.01
2023-04-03T12:40:11.958Z,48.35
2023-04-03T12:42:52.373Z,48.86
2023-04-03T12:45:24.805Z,50.09
2023-04-03T12:47:54.750Z,50.34
2023-04-03T12:50:34.956Z,49.56
2023-04-03T12:53:13.165Z,49.52
2023-04-03T12:55:40.127Z,51.08
2023-04-03T12:58:29.488Z,48.58
2023-04-03T13:01:04.820Z,51.07
2023-04-03T13:03:34.770Z,47.25
2023-04-03T13:06:03.539Z,48.69
2023-04-03T13:08:30.764Z,47.88
2023-04-03T13:10:57.312Z,49.99
2023-04-03T13:13:24.347Z,49.47
2023-04-03T13:15:51.315Z,51.00
2023-04-03T13:18:30.015Z,48.36
2023-04-03T13:21:07.395Z,48.67
2023-04-03T13:23:37.726Z,47.44
2023-04-03T13:26:05.762Z,49.02
2023-04-03T13:28:34.077Z,47.64
2023-04-03T13:31:06.567Z,47.96
2023-04-03T13:33:36.336Z,46.51
2023-04-03T13:36:18.978Z,46.99
2023-04-03T13:38:45.650Z,47.20
2023-04-03T13:41:36.316Z,48.03
2023-04-03T13:44:22.986Z,48.72
2023-04-03T13:46:59.798Z,45.98
2023-04-03T13:49:29.715Z,47.18
2023-04-03T13:52:06.428Z,46.41
2023-04-03T13:54:40.009Z,45.00
2023-04-03T13:57:16.947Z,46.07
2023-04-03T13:59:46.696Z,46.52
2023-04-03T14:02:13.280Z,45.31
2023-04-03T14:04:46.034Z,44.60
2023-04-03T14:07:13.952Z,44.73
2023-04-03T14:09:41.178Z,44.79
2023-04-03T14:12:24.245Z,46.08
2023-04-03T14:14:57.307Z,45.25
2023-04-03T14:17:25.937Z,45.21
2023-04-03T14:19:54.118Z,43.10
2023-04-03T14:22:27.337Z,43.17
2023-04-03T14:24:54.322Z,45.58
2023-04-03T14:27:24.688Z,46.43
2023-04-03T14:29:53.472Z,44.33
2023-04-03T14:32:22.697Z,43.82
2023-04-03T14:34:50.909Z,47.68
2023-04-03T14:37:21.345Z,45.73
2023-04-03T14:39:48.520Z,46.10
2023-04-03T14:42:20.370Z,44.47
2023-04-03T14:44:47.169Z,44.74
2023-04-03T14:47:30.002Z,44.16
2023-04-03T14:50:00.610Z,44.58
2023-04-03T14:52:34.373Z,45.99
2023-04-03T14:55:02.449Z,44.52
2023-04-03T14:57:30.326Z,43.71
2023-04-03T14:59:57.141Z,43.62
2023-04-03T15:02:26.312Z,45.26
2023-04-03T15:04:54.016Z,44.73
2023-04-03T15:07:21.577Z,46.15
2023-04-03T15:09:48.425Z,45.25
2023-04-03T15:14:51.760Z,43.79
2023-04-03T15:17:24.387Z,46.35
2023-04-03T15:19:51.124Z,44.59
2023-04-03T15:22:19.938Z,46.47
2023-04-03T15:24:47.078Z,45.18
2023-04-03T15:27:14.860Z,45.71
2023-04-03T15:29:43.910Z,46.02
2023-04-03T15:32:11.008Z,45.09
2023-04-03T15:34:38.671Z,43.54
2023-04-03T15:37:05.667Z,46.02
2023-04-03T15:39:32.605Z,46.65
2023-04-03T15:41:59.518Z,46.38
2023-04-03T15:44:26.322Z,44.91
2023-04-03T15:46:53.112Z,45.00
2023-04-03T15:49:22.703Z,46.81
2023-04-03T15:51:49.454Z,45.11
2023-04-03T15:54:16.823Z,45.13
2023-04-03T15:56:43.680Z,46.53
2023-04-03T15:59:10.458Z,44.44
2023-04-03T16:01:39.168Z,44.75
2023-04-03T16:04:09.034Z,46.86
2023-04-03T16:06:36.238Z,45.11
2023-04-03T16:09:02.992Z,43.85
2023-04-03T16:11:29.938Z,42.91
2023-04-03T16:13:57.479Z,44.64
2023-04-03T16:16:25.840Z,43.69
2023-04-03T16:18:52.481Z,44.40
2023-04-03T16:21:19.127Z,44.15
2023-04-03T16:23:46.230Z,45.00
2023-04-03T16:26:13.536Z,44.87
2023-04-03T16:28:40.482Z,44.24
2023-04-03T16:31:08.470Z,45.07
2023-04-03T16:33:35.446Z,44.80
2023-04-03T16:36:02.351Z,43.36
2023-04-03T16:38:29.004Z,44.88
2023-04-03T16:40:55.673Z,44.98
2023-04-03T16:43:22.295Z,45.22
2023-04-03T16:45:48.902Z,44.46
2023-04-03T16:48:15.737Z,46.35
2023-04-03T16:50:42.457Z,46.58
2023-04-03T16:53:09.102Z,46.08
2023-04-03T16:55:36.466Z,46.23
2023-04-03T16:58:03.151Z,45.49
2023-04-03T17:00:33.520Z,46.60
2023-04-03T17:03:00.523Z,45.91
2023-04-03T17:05:27.230Z,45.38
2023-04-03T17:07:53.865Z,45.39
2023-04-03T17:10:20.583Z,45.69
2023-04-03T17:12:47.271Z,46.23
2023-04-03T17:15:14.085Z,46.61
2023-04-03T17:17:40.950Z,46.67
2023-04-03T17:20:08.369Z,45.48
2023-04-03T17:22:35.094Z,44.87
2023-04-03T17:25:01.796Z,45.93
2023-04-03T17:27:28.626Z,46.26
2023-04-03T17:29:55.271Z,46.42
2023-04-03T17:32:21.971Z,47.01
2023-04-03T17:34:48.811Z,47.68
2023-04-03T17:37:15.548Z,46.64
2023-04-03T17:39:42.153Z,47.59
2023-04-03T17:42:08.901Z,47.92
2023-04-03T17:44:35.553Z,47.86
2023-04-03T17:47:02.314Z,47.89
2023-04-03T17:49:29.032Z,47.56
2023-04-03T17:51:55.693Z,49.15
2023-04-03T17:54:22.336Z,49.41
2023-04-03T17:56:48.975Z,47.93
2023-04-03T17:59:16.765Z,47.93
2023-04-03T18:01:45.186Z,47.20
2023-04-03T18:04:12.156Z,47.23
2023-04-03T18:06:43.641Z,48.14
2023-04-03T18:09:19.919Z,48.17
2023-04-03T18:11:48.536Z,49.53
2023-04-03T18:14:26.738Z,49.28
2023-04-03T18:16:53.419Z,49.47
2023-04-03T18:19:23.329Z,52.49
2023-04-03T18:21:51.935Z,54.04
2023-04-03T18:24:20.837Z,53.42
2023-04-03T18:26:51.803Z,53.47
2023-04-03T18:29:20.436Z,51.87
2023-04-03T18:31:51.663Z,52.37
2023-04-03T18:34:18.304Z,52.98
2023-04-03T18:36:44.971Z,52.90
2023-04-03T18:39:11.648Z,53.00
2023-04-03T18:41:38.493Z,53.14
2023-04-03T18:44:08.409Z,53.46
2023-04-03T18:46:35.174Z,54.29
2023-04-03T18:49:02.563Z,52.50
2023-04-03T18:51:29.563Z,52.56
2023-04-03T18:53:56.206Z,52.64
2023-04-03T18:56:22.854Z,53.25
2023-04-03T18:58:49.538Z,52.29
2023-04-03T19:01:16.715Z,53.05
2023-04-03T19:03:43.902Z,53.16
2023-04-03T19:06:10.789Z,52.69
2023-04-03T19:08:37.776Z,52.81
2023-04-03T19:11:04.633Z,52.47
2023-04-03T19:13:31.426Z,53.50
2023-04-03T19:15:58.089Z,53.13
2023-04-03T19:18:26.276Z,52.08
2023-04-03T19:20:55.846Z,53.16
2023-04-03T19:23:23.845Z,52.43
2023-04-03T19:25:59.283Z,52.40
2023-04-03T19:28:25.944Z,52.33
2023-04-03T19:30:52.655Z,52.80
2023-04-03T19:33:22.374Z,52.14
2023-04-03T19:35:49.063Z,52.13
2023-04-03T19:38:15.722Z,52.59
2023-04-03T19:40:43.428Z,50.81
2023-04-03T19:43:14.262Z,52.04
2023-04-03T19:45:41.822Z,51.96
2023-04-03T19:48:08.651Z,48.69
2023-04-03T19:50:35.640Z,47.97
2023-04-03T19:53:02.472Z,47.13
2023-04-03T19:55:29.369Z,46.81
2023-04-03T19:57:56.107Z,46.29
2023-04-03T20:00:22.760Z,46.48
2023-04-03T20:02:49.411Z,45.33
2023-04-03T20:05:16.149Z,46.30
2023-04-03T20:07:42.763Z,46.48
2023-04-03T20:10:10.030Z,46.76
2023-04-03T20:12:36.649Z,45.35
2023-04-03T20:15:03.701Z,46.35
2023-04-03T20:17:30.641Z,46.01
2023-04-03T20:19:57.346Z,47.51
2023-04-03T20:22:24.041Z,45.84
2023-04-03T20:24:50.628Z,45.03
2023-04-03T20:27:17.261Z,43.30
2023-04-03T20:29:44.021Z,44.05
2023-04-03T20:32:10.680Z,45.69
2023-04-03T20:34:37.988Z,45.70
2023-04-03T20:37:04.678Z,45.05
2023-04-03T20:39:31.690Z,45.22
2023-04-03T20:41:59.927Z,44.28
2023-04-03T20:44:26.544Z,44.17
2023-04-03T20:46:54.061Z,45.33
2023-04-03T20:49:22.142Z,45.67
2023-04-03T20:51:49.012Z,43.39
2023-04-03T20:54:15.649Z,43.55
2023-04-03T20:56:42.327Z,42.54
2023-04-03T20:59:09.032Z,43.17
2023-04-03T21:01:35.800Z,43.09
2023-04-03T21:04:12.549Z,42.13
2023-04-03T21:07:16.648Z,42.89
2023-04-03T21:10:20.582Z,43.62
2023-04-03T21:13:24.583Z,44.35
2023-04-03T21:15:51.083Z,42.85
2023-04-03T21:18:48.437Z,43.51
2023-04-03T21:21:33.634Z,42.88
2023-04-03T21:24:01.595Z,43.30
2023-04-03T21:26:28.429Z,43.05
2023-04-03T21:28:55.346Z,42.92
2023-04-03T21:31:22.675Z,43.73
2023-04-03T21:33:50.235Z,42.48
2023-04-03T21:36:16.889Z,43.76
2023-04-03T21:38:43.481Z,43.80
2023-04-03T21:41:10.177Z,44.60
2023-04-03T21:43:36.792Z,44.18
2023-04-03T21:46:03.427Z,44.14
2023-04-03T21:48:30.193Z,44.10
2023-04-03T21:51:06.368Z,43.59
2023-04-03T21:53:33.131Z,42.90
2023-04-03T21:56:00.236Z,45.33
2023-04-03T21:58:33.309Z,42.86
2023-04-03T22:01:14.165Z,43.42
2023-04-03T22:03:42.539Z,43.18
2023-04-03T22:06:10.544Z,45.63
2023-04-03T22:08:37.725Z,43.87
2023-04-03T22:11:06.222Z,45.04
2023-04-03T22:13:33.319Z,44.64
2023-04-03T22:16:00.342Z,46.16
2023-04-03T22:18:27.345Z,45.09
2023-04-03T22:20:54.967Z,46.10
2023-04-03T22:23:22.398Z,45.56
2023-04-03T22:26:06.025Z,45.85
2023-04-03T22:28:34.905Z,45.62
2023-04-03T22:31:02.339Z,46.21
2023-04-03T22:33:29.152Z,46.22
2023-04-03T22:35:55.795Z,46.21
2023-04-03T22:38:22.503Z,46.21
2023-04-03T22:40:56.690Z,46.99
2023-04-03T22:43:23.429Z,45.21
2023-04-03T22:45:50.232Z,46.38
2023-04-03T22:48:17.558Z,45.29
2023-04-03T22:50:44.562Z,45.86
2023-04-03T22:53:11.253Z,46.17
2023-04-03T22:55:37.913Z,46.20
2023-04-03T22:58:05.160Z,47.96
2023-04-03T23:00:32.462Z,46.05
2023-04-03T23:02:59.614Z,48.51
2023-04-03T23:05:26.335Z,47.84
2023-04-03T23:07:52.979Z,46.91
2023-04-03T23:10:20.597Z,46.83
2023-04-03T23:12:47.260Z,47.41
2023-04-03T23:15:13.940Z,47.21
2023-04-03T23:17:40.832Z,46.57
2023-04-03T23:20:07.868Z,47.73
2023-04-03T23:22:34.555Z,48.48
2023-04-03T23:25:01.156Z,47.59
2023-04-03T23:27:27.827Z,47.69
2023-04-03T23:29:54.467Z,47.65
2023-04-03T23:32:21.065Z,47.34
2023-04-03T23:34:47.703Z,49.34
2023-04-03T23:37:14.430Z,47.51
2023-04-03T23:39:41.082Z,49.82
2023-04-03T23:42:07.851Z,48.88
2023-04-03T23:44:34.694Z,46.80
2023-04-03T23:47:01.360Z,47.61
2023-04-03T23:49:28.028Z,47.07
2023-04-03T23:51:54.882Z,48.47
2023-04-03T23:54:21.517Z,48.97
2023-04-03T23:56:48.501Z,48.02
2023-04-03T23:59:15.304Z,48.58
